• Join FlightAware (Why Join?)
  • Login
  • US Flag 
12:28PM EDT


 

Airport Tracker/Info


-or-


 

Live Flight TrackerFlight Track Log ✈ UAL33 ✈ 02-Jul-2013 ✈ KORD - KIAH

Flight Track Log - Related Links

Times and Time Zones

All times are in EDT time to prevent confusion due to time zone crossing. See the UAL33 flight status page for this flight to view local times or setup timezone preferences in your user account.

Time Position Orientation Groundspeed Altitude Reporting Facility
EDT Latitude Longitude Course Direction KTS MPH feet Rate Location/Type
09:55PM 41.9790 -87.9120 North  Level FlightAware
10:01PM 41.9800 -87.9130 323° Northwest 22 25 60 Level FlightAware
10:03PM 41.8007 -88.0456 200° South  Level Estimated
10:03PM 41.9820 -87.9110 200° South 20 23  Level FlightAware
10:05PM 41.9780 -87.9140 209° Southwest 24 28 120 Level FlightAware
10:06PM 41.9780 -87.9160 270° West 29 33 180 Level FlightAware
10:06PM 41.9800 -87.9170 340° North 32 37 240 Level FlightAware
10:07PM 41.9810 -87.9180 323° Northwest 21 24 300 Level FlightAware
10:07PM 41.9820 -87.9180 360° North 21 24 300 Level FlightAware
10:07PM 41.9830 -87.9180 360° North 24 28 360 Level FlightAware
10:08PM 41.9840 -87.9180 360° North 21 24 420 Level FlightAware
10:09PM 41.9840 -87.9170 90° East 24 28 540 Level FlightAware
10:10PM 41.9840 -87.8840 90° East 170 196 1,100 1,980 Climbing FlightAware
10:10PM 41.9800 -87.8680 109° East 175 201 2,000 3,180 Climbing FlightAware
10:10PM 41.9730 -87.8590 136° Southeast 195 224 2,600 2,760 Climbing FlightAware
10:11PM 41.9500 -87.8330 140° Southeast 233 268 4,000 2,400 Climbing FlightAware
10:11PM 41.9310 -87.8110 139° Southeast 263 303 4,700 1,740 Climbing FlightAware
10:11PM 41.9260 -87.8040 134° Southeast 267 307 4,800 420 Climbing FlightAware
10:12PM 41.9020 -87.7870 152° Southeast 272 313 4,900 120 Climbing FlightAware
10:12PM 41.8710 -87.7840 176° South 270 311 4,900  Level FlightAware
10:12PM 41.8520 -87.7830 178° South 271 312 4,900  Level FlightAware
10:13PM 41.8200 -87.7810 177° South 269 310 4,900 420 Level FlightAware
10:13PM 41.7870 -87.7870 188° South 271 312 5,300 1,740 Climbing FlightAware
10:13PM 41.7690 -87.7940 196° South 274 315 6,100 4,080 Climbing FlightAware
10:14PM 41.7310 -87.8100 197° South 278 320 8,400 4,200 Climbing FlightAware
10:15PM 41.6840 -87.8380 204° Southwest 286 329 11,200 4,020 Climbing FlightAware
10:15PM 41.6300 -87.8750 207° Southwest 307 353 14,100 2,940 Climbing FlightAware
10:16PM 41.5650 -87.9200 207° Southwest 371 427 15,600 2,100 Climbing FlightAware
10:17PM 41.4970 -87.9670 207° Southwest 412 474 17,300 2,820 Climbing FlightAware
10:18PM 41.4170 -88.0220 207° Southwest 429 494 19,800 3,060 Climbing FlightAware
10:18PM 41.3550 -88.0640 207° Southwest 442 509 21,400 2,880 Climbing FlightAware
10:19PM 41.2790 -88.1160 207° Southwest 455 524 23,500 2,700 Climbing FlightAware
10:20PM 41.2000 -88.1700 207° Southwest 469 540 25,200 2,460 Climbing FlightAware
10:20PM 41.1210 -88.2230 207° Southwest 481 554 26,900 2,340 Climbing FlightAware
10:21PM 41.0330 -88.2830 207° Southwest 491 565 28,500 2,220 Climbing FlightAware
10:22PM 40.9500 -88.3390 207° Southwest 496 571 30,100 2,640 Climbing FlightAware
10:22PM 40.8680 -88.3950 207° Southwest 483 556 32,100 3,360 Climbing FlightAware
10:23PM 40.7710 -88.4600 207° Southwest 452 520 35,200 3,000 Climbing FlightAware
10:24PM 40.7010 -88.5070 207° Southwest 444 511 36,700 2,040 Climbing FlightAware
10:25PM 40.6170 -88.5630 207° Southwest 438 504 38,100 1,740 Climbing FlightAware
10:25PM 40.5560 -88.6040 207° Southwest 437 503 39,000 1,260 Climbing FlightAware
10:26PM 40.4790 -88.6550 207° Southwest 444 511 39,700 660 Climbing FlightAware
10:27PM 40.4020 -88.7060 207° Southwest 444 511 40,000 180 Climbing FlightAware
10:27PM 40.3180 -88.7620 207° Southwest 444 511 40,000  Level FlightAware
10:28PM 40.2540 -88.8040 207° Southwest 443 510 40,000  Level FlightAware
10:29PM 40.1770 -88.8540 206° Southwest 444 511 40,000  Level FlightAware
10:29PM 40.0930 -88.9100 207° Southwest 446 513 40,000  Level FlightAware
10:30PM 40.0240 -88.9550 207° Southwest 447 514 40,000  Level FlightAware
10:31PM 39.9470 -89.0050 206° Southwest 447 514 40,000  Level FlightAware
10:31PM 39.8760 -89.0520 207° Southwest 448 516 40,000  Level FlightAware
10:32PM 39.8000 -89.1010 206° Southwest 447 514 40,000  Level FlightAware
10:33PM 39.7310 -89.1460 207° Southwest 447 514 40,000  Level FlightAware
10:33PM 39.6490 -89.1990 206° Southwest 446 513 40,000  Level FlightAware
10:34PM 39.5830 -89.2420 207° Southwest 446 513 40,000  Level FlightAware
10:35PM 39.5110 -89.2880 206° Southwest 448 516 40,000  Level FlightAware
10:35PM 39.4320 -89.3390 207° Southwest 448 516 40,000  Level FlightAware
10:36PM 39.3560 -89.3880 207° Southwest 449 517 40,000  Level FlightAware
10:37PM 39.2730 -89.4400 206° Southwest 449 517 40,000  Level FlightAware
10:37PM 39.1990 -89.4880 207° Southwest 448 516 40,000  Level FlightAware
10:38PM 39.1170 -89.5400 206° Southwest 448 516 40,000  Level FlightAware
10:39PM 39.0380 -89.5900 206° Southwest 449 517 40,000  Level FlightAware
10:39PM 38.9750 -89.6300 206° Southwest 448 516 40,000  Level FlightAware
10:40PM 38.9020 -89.6760 206° Southwest 448 516 40,000  Level FlightAware
10:41PM 38.8000 -89.7400 206° Southwest 448 516 40,000  Level FlightAware
10:42PM 38.7170 -89.7920 206° Southwest 448 516 40,000  Level FlightAware
10:42PM 38.6340 -89.8450 207° Southwest 449 517 40,000  Level FlightAware
10:43PM 38.5600 -89.8910 206° Southwest 449 517 40,000  Level FlightAware
10:44PM 38.4750 -89.9440 206° Southwest 449 517 40,000  Level FlightAware
10:44PM 38.4240 -89.9760 206° Southwest 451 519 40,000  Level FlightAware
10:45PM 38.3360 -90.0310 206° Southwest 448 516 40,000  Level FlightAware
10:46PM 38.2730 -90.0690 205° Southwest 447 514 40,000  Level FlightAware
10:46PM 38.2090 -90.1070 205° Southwest 447 514 40,000  Level FlightAware
10:47PM 38.1100 -90.1700 207° Southwest 448 516 40,000  Level FlightAware
10:48PM 37.9750 -90.2360 201° Southwest 448 516 40,000  Level FlightAware
10:49PM 37.9090 -90.2650 199° South 449 517 40,000  Level FlightAware
10:50PM 37.8010 -90.3120 199° South 449 517 40,000  Level FlightAware
10:50PM 37.7410 -90.3380 199° South 449 517 40,000  Level FlightAware
10:51PM 37.6770 -90.3660 199° South 449 517 40,000  Level FlightAware
10:52PM 37.6010 -90.3990 199° South 449 517 40,000  Level FlightAware
10:53PM 37.5390 -90.4260 199° South 449 517 40,000  Level FlightAware
10:53PM 37.4570 -90.4610 199° South 449 517 40,000  Level FlightAware
10:54PM 37.3150 -90.5240 199° South 449 517 40,000  Level FlightAware
10:55PM 37.2200 -90.5640 199° South 450 518 40,000  Level FlightAware
10:55PM 37.1340 -90.6010 199° South 450 518 40,000  Level FlightAware
10:56PM 37.0560 -90.6350 199° South 449 517 40,000  Level FlightAware
10:57PM 36.9670 -90.6730 199° South 448 516 40,000  Level FlightAware
10:57PM 36.8870 -90.7070 199° South 450 518 40,000  Level FlightAware
10:58PM 36.8080 -90.7410 199° South 450 518 40,000  Level FlightAware
10:59PM 36.7260 -90.7760 199° South 449 517 40,000  Level FlightAware
11:00PM 36.6350 -90.8150 199° South 451 519 40,000  Level FlightAware
11:00PM 36.5700 -90.8420 198° South 452 520 40,000  Level FlightAware
11:01PM 36.4840 -90.8780 199° South 453 521 40,000  Level FlightAware
11:02PM 36.3730 -90.9250 199° South 454 522 40,000  Level FlightAware
11:03PM 36.2930 -90.9590 199° South 454 522 40,000  Level FlightAware
11:03PM 36.2100 -90.9940 199° South 453 521 40,000  Level FlightAware
11:04PM 36.1270 -91.0290 199° South 449 517 40,000  Level FlightAware
11:05PM 36.0500 -91.0610 199° South 449 517 40,000  Level FlightAware
11:05PM 35.9870 -91.0870 198° South 450 518 40,000  Level FlightAware
11:06PM 35.9180 -91.1150 198° South 450 518 40,000  Level FlightAware
11:07PM 35.8100 -91.1610 199° South 452 520 40,000  Level FlightAware
11:07PM 35.7220 -91.1970 198° South 453 521 40,000  Level FlightAware
11:08PM 35.6430 -91.2300 199° South 454 522 40,000  Level FlightAware
11:09PM 35.5620 -91.2630 198° South 455 524 40,000  Level FlightAware
11:09PM 35.4970 -91.2890 198° South 455 524 40,000  Level FlightAware
11:10PM 35.4020 -91.3290 199° South 454 522 40,000  Level FlightAware
11:11PM 35.3290 -91.3580 198° South 454 522 40,000  Level FlightAware
11:12PM 35.2120 -91.4060 199° South 454 522 40,000  Level FlightAware
11:12PM 35.1300 -91.4390 198° South 454 522 40,000  Level FlightAware
11:13PM 35.0640 -91.4650 198° South 454 522 40,000  Level FlightAware
11:14PM 34.9400 -91.5140 198° South 454 522 40,000  Level FlightAware
11:15PM 34.8590 -91.5460 198° South 454 522 40,000  Level FlightAware
11:16PM 34.7990 -91.5700 198° South 454 522 40,000  Level FlightAware
11:16PM 34.7380 -91.5940 198° South 454 522 40,000  Level FlightAware
11:17PM 34.6550 -91.6270 198° South 454 522 40,000  Level FlightAware
11:18PM 34.5960 -91.6510 199° South 454 522 40,000  Level FlightAware
11:18PM 34.5140 -91.6830 198° South 454 522 40,000  Level FlightAware
11:19PM 34.4510 -91.7070 197° South 454 522 40,000  Level FlightAware
11:20PM 34.3680 -91.7400 198° South 454 522 40,000  Level FlightAware
11:21PM 34.3070 -91.7640 198° South 454 522 40,000  Level FlightAware
11:21PM 34.2460 -91.7880 198° South 454 522 40,000  Level FlightAware
11:22PM 33.9300 -91.9217 198° South 442 509 40,000  Level Fort Worth Center
11:23PM 33.8111 -91.9692 198° South 449 517 40,000  Level Fort Worth Center
11:24PM 33.6900 -92.0167 198° South 454 522 40,000  Level Fort Worth Center
11:25PM 33.5711 -92.0639 198° South 454 522 40,000  Level Fort Worth Center
11:26PM 33.4561 -92.1081 198° South 454 522 40,000  Level Fort Worth Center
11:27PM 33.3369 -92.1550 198° South 449 517 40,000  Level Fort Worth Center
11:28PM 33.2158 -92.2019 198° South 449 517 40,000  Level Fort Worth Center
11:29PM 33.0967 -92.2486 198° South 454 522 40,000  Level Fort Worth Center
11:30PM 32.9794 -92.2900 196° South 454 522 40,000  Level Fort Worth Center
11:31PM 32.8564 -92.3392 199° South 454 522 40,000  Level Fort Worth Center
11:32PM 32.7369 -92.3853 198° South 454 522 40,000  Level Fort Worth Center
11:38PM 32.1514 -92.8407 198° South 458 527 40,000  Level FlightAware ADS-B
11:38PM 32.0966 -92.8845 214° Southwest 458 527 40,000  Level FlightAware ADS-B
11:39PM 32.0109 -92.9527 214° Southwest 461 531 40,000  Level FlightAware ADS-B
11:40PM 31.9493 -93.0018 214° Southwest 462 532 40,000  Level FlightAware ADS-B
11:40PM 31.8956 -93.0444 214° Southwest 462 532 40,000  Level FlightAware ADS-B
11:41PM 31.7812 -93.1350 214° Southwest 462 532 40,000  Level FlightAware ADS-B
11:42PM 31.7091 -93.1920 214° Southwest 462 532 40,000  Level FlightAware ADS-B
11:43PM 31.6552 -93.2345 214° Southwest 461 531 40,000  Level FlightAware ADS-B
11:43PM 31.5986 -93.2791 214° Southwest 461 531 40,000  Level FlightAware ADS-B
11:44PM 31.5412 -93.3243 214° Southwest 462 532 40,000  Level FlightAware ADS-B
11:44PM 31.4878 -93.3662 214° Southwest 459 528 40,000  Level FlightAware ADS-B
11:45PM 31.4339 -93.4085 214° Southwest 458 527 40,000 -1,320 Level FlightAware ADS-B
11:47PM 31.1674 -93.6165 214° Southwest 449 517 36,100 -1,800 Descending FlightAware ADS-B
11:48PM 31.1153 -93.6572 214° Southwest 450 518 34,600 -3,300 Descending FlightAware ADS-B
11:48PM 31.0633 -93.6977 214° Southwest 451 519 32,800 -3,300 Descending FlightAware ADS-B
11:49PM 31.0108 -93.7385 214° Southwest 448 516 31,300 -2,760 Descending FlightAware ADS-B
11:49PM 30.9575 -93.7797 214° Southwest 439 505 30,000 -2,460 Descending FlightAware ADS-B
11:50PM 30.9070 -93.8185 213° Southwest 433 498 28,800 -2,400 Descending FlightAware ADS-B
11:50PM 30.8566 -93.8575 214° Southwest 434 499 27,600 -2,460 Descending FlightAware ADS-B
11:51PM 30.8060 -93.8968 214° Southwest 435 501 26,300 -2,580 Descending FlightAware ADS-B
11:51PM 30.7548 -93.9362 213° Southwest 432 497 25,000 -2,520 Descending FlightAware ADS-B
11:52PM 30.7049 -93.9747 214° Southwest 426 490 23,800 -2,520 Descending FlightAware ADS-B
11:52PM 30.6557 -94.0123 213° Southwest 422 486 22,500 -2,580 Descending FlightAware ADS-B
11:53PM 30.5584 -94.0871 213° Southwest 414 476 19,900 -2,520 Descending FlightAware ADS-B
11:55PM 30.3992 -94.2092 214° Southwest 399 459 15,700 -2,520 Descending FlightAware ADS-B
11:55PM 30.3892 -94.2186 219° Southwest 397 457 15,400 -2,220 Descending FlightAware ADS-B
11:56PM 30.3585 -94.2599 234° Southwest 387 445 14,500 -2,220 Descending FlightAware ADS-B
11:57PM 30.3043 -94.3654 239° Southwest 372 428 12,200 -2,340 Descending FlightAware ADS-B
11:57PM 30.2782 -94.4164 239° Southwest 362 417 11,000 -1,800 Descending FlightAware ADS-B
11:58PM 30.2526 -94.4653 239° Southwest 344 396 10,400 -900 Descending FlightAware ADS-B
11:58PM 30.2288 -94.5119 239° Southwest 319 367 10,100 -480 Descending FlightAware ADS-B
11:59PM 30.1962 -94.5750 239° Southwest 286 329 9,800 -660 Descending FlightAware ADS-B
12:00AM 30.1657 -94.6344 239° Southwest 278 320 9,100 -1,020 Descending FlightAware ADS-B
12:00AM 30.1556 -94.6540 239° Southwest 277 319 8,800 -1,200 Descending FlightAware ADS-B
12:01AM 30.1290 -94.7053 239° Southwest 273 314 8,000 -1,500 Descending FlightAware ADS-B
12:01AM 30.0994 -94.7625 239° Southwest 274 315 6,700 -1,500 Descending FlightAware ADS-B
12:02AM 30.0798 -94.8003 239° Southwest 274 315 6,100 -1,140 Descending FlightAware ADS-B
12:03AM 30.0502 -94.8572 239° Southwest 270 311 5,300 -1,080 Descending FlightAware ADS-B
12:03AM 30.0313 -94.8935 239° Southwest 268 308 4,800 -1,020 Descending FlightAware ADS-B
12:04AM 29.9951 -94.9629 239° Southwest 257 296 3,900 -780 Descending FlightAware ADS-B
12:04AM 29.9861 -94.9801 239° Southwest 244 281 3,900  Level FlightAware ADS-B
12:04AM 29.9836 -94.9850 240° Southwest 241 277 3,900  Level FlightAware ADS-B
12:04AM 29.9815 -94.9898 243° Southwest 239 275 3,900  Level FlightAware ADS-B
12:05AM 29.9790 -94.9987 254° West 237 273 3,900  Level FlightAware ADS-B
12:05AM 29.9778 -95.0069 261° West 236 272 3,900  Level FlightAware ADS-B
12:05AM 29.9773 -95.0134 265° West 236 272 3,900  Level FlightAware ADS-B
12:05AM 29.9769 -95.0439 271° West 223 257 3,900  Level FlightAware ADS-B
12:05AM 29.9773 -95.0615 272° West 212 244 3,900 -840 Level FlightAware ADS-B
12:06AM 29.9776 -95.1285 270° West 203 234 2,900 -1,080 Descending FlightAware ADS-B
12:07AM 29.9775 -95.1553 270° West 176 203 2,400 -1,080 Descending FlightAware ADS-B
12:07AM 29.9776 -95.1693 270° West 165 190 2,200 -780 Descending FlightAware ADS-B
12:07AM 29.9776 -95.1817 270° West 148 170 2,000 -720 Descending FlightAware ADS-B
12:08AM 29.9776 -95.1891 270° West 140 161 1,900 -660 Descending FlightAware ADS-B
12:08AM 29.9776 -95.2028 270° West 139 160 1,700 -720 Descending FlightAware ADS-B
12:08AM 29.9776 -95.2141 270° West 137 158 1,500 -780 Descending FlightAware ADS-B
12:08AM 29.9776 -95.2257 270° West 135 155 1,300 -780 Descending FlightAware ADS-B
12:09AM 29.9776 -95.2369 270° West 133 153 1,100 -660 Descending FlightAware ADS-B
12:09AM 29.9776 -95.2462 270° West 134 154 1,000 -780 Descending FlightAware ADS-B
12:09AM 29.9776 -95.2537 270° West 134 154 800 -840 Descending FlightAware ADS-B
12:09AM 29.9776 -95.2618 270° West 133 153 700 -720 Descending FlightAware ADS-B
12:09AM 29.9776 -95.2725 270° West 131 151 500 -600 Descending FlightAware ADS-B
12:10AM 29.9776 -95.2832 270° West 133 153 400 -660 Descending FlightAware ADS-B
12:10AM 29.9776 -95.2922 270° West 132 152 200 -720 Descending FlightAware ADS-B
12:10AM 29.9776 -95.3029 270° West 132 152 100 -420 Descending FlightAware ADS-B